Pagina principale
METAR-TAF:

METAR-TAF

Aeroporti :

Aeroporto di Cuneo-Levaldigi

Cuneo, Italia

latitudine: 44-32-47N, longitudine: 007-37-20E, altezza: 386 m

Osservazione

Il bollettino è stato emesso 1 ora e 18 minuti fa, alle 14:50 UTC
Vento 3 kt da nord-ovest, variando fra ovest/sud-ovest e nord/nord-est
Temperature 21°C
Umidità 53%
Pressione 1015 hPa
Visibilità 10 km o più
Nubi sparse ad un'altezza di 4500 ft

METAR: LIMZ 311450Z 32003KT 250V020 9999 SCT045 21/11 Q1015

Ora: 18:08 (16:08 UTC)

Previsione

Il bollettino è stato emesso 5 ore e 8 minuti fa, alle 11:00 UTC
Previsione valida dal 31 alle 12 UTC al 01 alle 12 UTC
Vento 5 kt da direzioni variabili
Visibilità: 8000 m
Nuvoloso ad un'altezza di 4000 ft
Temporaneamente
dal 31 alle 12 UTC al 31 alle 16 UTC
rovesci di pioggia

TAF: LIMZ 311100Z 3112/0112 VRB05KT 8000 BKN040 TEMPO 3112/3116 SHRA

Osservazioni e previsioni meteorologiche di più di 4000 aeroporti (messaggi METAR e TAF).

Le stazioni disponibili sono rappresentate dai dischi gialli e rossi sulla carta.

Puntare il mouse per vedere il nome della stazione.

Clicca sopra per visualizzare le osservazioni e previsioni meteorologiche.

Per cambiare la mappa : fare clic sui pulsanti verdi con una croce nera per ingrandire, il pulsante verde con un trattino per diminuire, o sulla freccia verde per le mappe adiacenti.


METAR-TAF: